»·PEaware :: N182SV KSEE-KSAN

N182SV :: KSEE-KSAN

FLIGHT INFORMATION

Flight Status: Arrived
Operator: Privately registered:
United States
More flights under this callsign
Pilot: A. W. (1340)
Aircraft: CESSNA 172 SKYHAWK
(C172)
More flights by this aircraft type
Origin: KSEE Gillespie
United States
Destination: KSAN San Diego Intl-Lindbergh
United States
More flights between these airports :: More routes between these airports
Route: +RWY27RODP MZB
File this flight plan on PilotEdge
Remarks: no SID, no STAR / V /
Altitude:
(Current/Filed)
4,000ft
Speed:
(Current/Filed)
90kts
Departed: 01-Feb-13 10:51 AM
Arrived: 01-Feb-13 11:24 AM
Distance/Time
Traveled:
13nm/0:33
Distance/Time
To Go:
Arrived

Flight Plot

Page will automatically refresh every two minutes.

Flight plan parsing failed; only flown route is shown


Map Options




Map Legend


Flown Route
Filed Route
Departure Airport
Arrival Airport
Navaid (VOR, NDB)
Fix

Horizontal Profiles

Position Reports

Time Latitude Longitude Heading Altitude Ground
Speed
01-Feb-13 10:33 32.824271 -116.970571 191 390ft 0kts
01-Feb-13 10:34 32.824270 -116.970571 191 390ft 0kts
01-Feb-13 10:35 32.824270 -116.970571 191 390ft 0kts
01-Feb-13 10:36 32.824269 -116.970572 191 390ft 0kts
01-Feb-13 10:37 32.824268 -116.970572 191 390ft 0kts
01-Feb-13 10:38 32.824267 -116.970572 191 390ft 0kts
01-Feb-13 10:39 32.824266 -116.970572 191 390ft 0kts
01-Feb-13 10:40 32.824266 -116.970572 191 390ft 0kts
01-Feb-13 10:41 32.824265 -116.970573 191 390ft 0kts
01-Feb-13 10:42 32.824264 -116.970573 191 390ft 0kts
01-Feb-13 10:43 32.824263 -116.970573 191 390ft 0kts
01-Feb-13 10:44 32.824262 -116.970573 191 390ft 0kts
01-Feb-13 10:45 32.824262 -116.970573 191 390ft 0kts
01-Feb-13 10:46 32.824238 -116.970587 218 390ft 1kts
01-Feb-13 10:46 32.825608 -116.969438 110 390ft 20kts
01-Feb-13 10:47 32.824896 -116.965279 359 390ft 6kts
01-Feb-13 10:48 32.825480 -116.965175 10 390ft 0kts
01-Feb-13 10:50 32.825481 -116.965175 10 390ft 0kts
01-Feb-13 10:50 32.825482 -116.965175 10 390ft 0kts
01-Feb-13 10:51 32.827453 -116.970108 281 401ft 72kts
01-Feb-13 10:53 32.833677 -117.004106 281 1213ft 87kts
01-Feb-13 10:53 32.835878 -117.026492 259 1978ft 76kts
01-Feb-13 10:55 32.831933 -117.052921 259 2983ft 61kts
01-Feb-13 10:56 32.829057 -117.072225 259 3685ft 59kts
01-Feb-13 10:56 32.826458 -117.089673 259 4112ft 80kts
01-Feb-13 10:57 32.821291 -117.124358 259 4011ft 119kts
01-Feb-13 10:58 32.815546 -117.162919 259 4002ft 118kts
01-Feb-13 10:59 32.809817 -117.201366 259 3971ft 120kts
01-Feb-13 11:00 32.803535 -117.243528 259 3416ft 133kts
01-Feb-13 11:02 32.797046 -117.287073 259 2826ft 134kts
01-Feb-13 11:03 32.790493 -117.331048 259 2226ft 135kts
01-Feb-13 11:04 32.772153 -117.352243 134 2018ft 109kts
01-Feb-13 11:05 32.764890 -117.318525 107 2003ft 108kts
01-Feb-13 11:06 32.756406 -117.284177 105 2002ft 107kts
01-Feb-13 11:07 32.743234 -117.260629 49 2314ft 84kts
01-Feb-13 11:08 32.745972 -117.240188 108 2565ft 63kts
01-Feb-13 11:09 32.742101 -117.216877 68 3233ft 77kts
01-Feb-13 11:10 32.762241 -117.216121 355 3833ft 71kts
01-Feb-13 11:11 32.785935 -117.218131 355 3123ft 106kts
01-Feb-13 11:12 32.805133 -117.234237 276 3015ft 95kts
01-Feb-13 11:13 32.808393 -117.266190 276 2891ft 105kts
01-Feb-13 11:14 32.812270 -117.305140 272 2313ft 132kts
01-Feb-13 11:15 32.795593 -117.339353 235 1978ft 106kts
01-Feb-13 11:16 32.780099 -117.366543 235 2001ft 97kts
01-Feb-13 11:17 32.764817 -117.393098 227 2001ft 97kts
01-Feb-13 11:18 32.756491 -117.372864 78 2021ft 97kts
01-Feb-13 11:19 32.761735 -117.341092 78 2001ft 97kts
01-Feb-13 11:20 32.766092 -117.309405 100 1999ft 97kts
01-Feb-13 11:21 32.755360 -117.280318 104 2004ft 98kts
01-Feb-13 11:22 32.748178 -117.250281 105 1797ft 95kts
01-Feb-13 11:23 32.741542 -117.222658 105 1116ft 83kts
01-Feb-13 11:24 32.735619 -117.198002 105 33ft 62kts
01-Feb-13 11:25 32.733800 -117.191197 114 18ft 8kts
01-Feb-13 11:26 32.732878 -117.190497 232 18ft 0kts
01-Feb-13 11:27 32.733025 -117.192360 288 18ft 20kts
01-Feb-13 11:28 32.732769 -117.195176 227 18ft 0kts
01-Feb-13 11:29 32.732769 -117.195177 227 18ft 0kts
01-Feb-13 11:30 32.732768 -117.195177 227 18ft 0kts
01-Feb-13 11:31 32.732768 -117.195178 227 18ft 0kts
01-Feb-13 11:32 32.732767 -117.195179 227 18ft 0kts

Navigation Log

Ident Type
Flight plan parsing failed, navigation log unavailable